createdAt,value
2022-11-13T00:00:23.883Z,16.58
2022-11-13T00:01:10.346Z,16.58
2022-11-13T00:01:52.213Z,16.53
2022-11-13T00:02:33.336Z,16.59
2022-11-13T00:03:15.845Z,16.61
2022-11-13T00:03:58.485Z,16.60
2022-11-13T00:04:38.835Z,16.57
2022-11-13T00:05:20.131Z,16.56
2022-11-13T00:06:00.942Z,16.60
2022-11-13T00:06:42.082Z,16.59
2022-11-13T00:07:22.078Z,16.65
2022-11-13T00:08:02.496Z,16.67
2022-11-13T00:08:43.745Z,16.64
2022-11-13T00:09:23.854Z,16.64
2022-11-13T00:10:05.226Z,16.65
2022-11-13T00:10:46.640Z,16.62
2022-11-13T00:11:26.672Z,16.63
2022-11-13T00:12:06.954Z,16.54
2022-11-13T00:12:48.446Z,16.52
2022-11-13T00:13:30.497Z,16.53
2022-11-13T00:14:11.907Z,16.51
2022-11-13T00:14:52.208Z,16.52
2022-11-13T00:15:32.560Z,16.49
2022-11-13T00:16:15.647Z,16.48
2022-11-13T00:16:55.983Z,16.39
2022-11-13T00:17:37.252Z,16.41
2022-11-13T00:18:18.735Z,16.41
2022-11-13T00:19:00.284Z,16.37
2022-11-13T00:19:40.714Z,16.37
2022-11-13T00:20:21.135Z,16.28
2022-11-13T00:21:06.592Z,16.32
2022-11-13T00:21:46.904Z,16.38
2022-11-13T00:22:28.352Z,16.37
2022-11-13T00:23:08.435Z,16.45
2022-11-13T00:23:50.742Z,16.49
2022-11-13T00:24:31.493Z,16.51
2022-11-13T00:25:12.543Z,16.51
2022-11-13T00:25:52.611Z,16.52
2022-11-13T00:26:33.949Z,16.51
2022-11-13T00:27:14.526Z,16.57
2022-11-13T00:27:54.776Z,16.52
2022-11-13T00:28:37.320Z,16.53
2022-11-13T00:29:17.584Z,16.54
2022-11-13T00:29:58.897Z,16.62
2022-11-13T00:30:38.972Z,16.60
2022-11-13T00:31:20.466Z,16.59
2022-11-13T00:32:00.663Z,16.61
2022-11-13T00:32:40.991Z,16.60
2022-11-13T00:33:45.240Z,16.65
2022-11-13T00:34:46.660Z,16.63
2022-11-13T00:35:25.441Z,16.60
2022-11-13T00:36:08.530Z,16.59
2022-11-13T00:36:49.876Z,16.54
2022-11-13T00:37:30.102Z,16.58
2022-11-13T00:38:10.240Z,16.53
2022-11-13T00:38:51.919Z,16.50
2022-11-13T00:39:32.218Z,16.55
2022-11-13T00:40:12.632Z,16.59
2022-11-13T00:40:54.017Z,16.50
2022-11-13T00:41:34.024Z,16.56
2022-11-13T00:42:14.432Z,16.54
2022-11-13T00:42:55.739Z,16.53
2022-11-13T00:43:35.674Z,16.54
2022-11-13T00:44:17.140Z,16.41
2022-11-13T00:44:57.149Z,16.49
2022-11-13T00:45:37.551Z,16.47
2022-11-13T00:46:19.012Z,16.44
2022-11-13T00:46:59.396Z,16.45
2022-11-13T00:47:40.866Z,16.45
2022-11-13T00:48:22.344Z,16.48
2022-11-13T00:49:02.661Z,16.54
2022-11-13T00:49:43.752Z,16.50
2022-11-13T00:50:24.282Z,16.52
2022-11-13T00:51:04.940Z,16.46
2022-11-13T00:51:46.020Z,16.35
2022-11-13T00:52:26.060Z,16.43
2022-11-13T00:53:06.562Z,16.43
2022-11-13T00:53:47.937Z,16.48
2022-11-13T00:54:28.399Z,16.42
2022-11-13T00:55:08.938Z,16.43
2022-11-13T00:55:50.988Z,16.38
2022-11-13T00:56:31.082Z,16.32
2022-11-13T00:57:12.401Z,16.24
2022-11-13T00:57:52.646Z,16.03
2022-11-13T00:58:34.130Z,16.12
2022-11-13T00:59:14.262Z,16.16
2022-11-13T00:59:55.643Z,16.18
2022-11-13T01:00:35.699Z,16.23
2022-11-13T01:01:19.203Z,16.21
2022-11-13T01:02:00.324Z,16.21
2022-11-13T01:02:40.500Z,16.27
2022-11-13T01:03:23.244Z,16.27
2022-11-13T01:04:03.539Z,16.27
2022-11-13T01:04:44.794Z,16.32
2022-11-13T01:05:25.402Z,16.32
2022-11-13T01:06:11.122Z,16.32
2022-11-13T01:06:52.353Z,16.30
2022-11-13T01:07:32.439Z,16.26
2022-11-13T01:08:14.766Z,16.24
2022-11-13T01:08:56.764Z,16.29
2022-11-13T01:09:37.036Z,16.30
2022-11-13T01:10:18.441Z,16.26
2022-11-13T01:10:58.408Z,16.25
2022-11-13T01:11:40.027Z,16.29
2022-11-13T01:12:20.400Z,16.31
2022-11-13T01:13:01.718Z,16.32
2022-11-13T01:13:43.319Z,16.34
2022-11-13T01:14:24.633Z,16.31
2022-11-13T01:15:05.503Z,16.28
2022-11-13T01:15:45.545Z,16.30
2022-11-13T01:16:28.674Z,16.30
2022-11-13T01:17:08.951Z,16.31
2022-11-13T01:17:49.564Z,16.31
2022-11-13T01:18:32.012Z,16.29
2022-11-13T01:19:12.095Z,16.26
2022-11-13T01:19:53.431Z,16.30
2022-11-13T01:20:33.710Z,16.22
2022-11-13T01:21:17.059Z,16.34
2022-11-13T01:21:57.001Z,16.36
2022-11-13T01:22:37.611Z,16.31
2022-11-13T01:23:18.899Z,16.36
2022-11-13T01:23:59.159Z,16.31
2022-11-13T01:24:39.642Z,16.35
2022-11-13T01:25:20.869Z,16.29
2022-11-13T01:26:06.306Z,16.32
2022-11-13T01:26:47.746Z,16.35
2022-11-13T01:27:28.121Z,16.32
2022-11-13T01:28:09.696Z,16.32
2022-11-13T01:28:50.637Z,16.20
2022-11-13T01:31:03.559Z,16.26
2022-11-13T01:33:00.364Z,16.28
2022-11-13T01:40:44.998Z,16.55
2022-11-13T01:48:48.163Z,16.36
2022-11-13T01:50:58.113Z,16.40
2022-11-13T01:51:41.333Z,16.37
2022-11-13T01:52:25.882Z,16.44
2022-11-13T01:53:07.515Z,16.48
2022-11-13T01:53:48.516Z,16.50
2022-11-13T01:54:33.208Z,16.49
2022-11-13T01:55:19.290Z,16.48
2022-11-13T01:55:59.757Z,16.51
2022-11-13T01:56:42.222Z,16.43
2022-11-13T01:57:23.200Z,16.41
2022-11-13T01:58:06.305Z,16.42
2022-11-13T01:58:52.475Z,16.44
2022-11-13T01:59:36.124Z,16.40
2022-11-13T02:00:17.597Z,16.41
2022-11-13T02:11:27.802Z,16.39
2022-11-13T02:12:12.802Z,16.35
2022-11-13T02:12:54.120Z,16.33
2022-11-13T02:13:35.409Z,16.32
2022-11-13T02:14:18.078Z,16.32
2022-11-13T02:15:01.830Z,16.33
2022-11-13T02:15:44.634Z,16.33
2022-11-13T02:16:26.206Z,16.38
2022-11-13T02:17:09.917Z,16.36
2022-11-13T02:17:55.302Z,16.33
2022-11-13T02:18:37.499Z,16.30
2022-11-13T02:19:25.716Z,16.32
2022-11-13T02:20:08.171Z,16.30
2022-11-13T02:20:57.456Z,16.36
2022-11-13T02:21:44.487Z,16.37
2022-11-13T02:22:34.009Z,16.29
2022-11-13T02:23:21.030Z,16.36
2022-11-13T02:24:16.736Z,16.38
2022-11-13T02:24:59.949Z,16.35
2022-11-13T02:25:44.645Z,16.37
2022-11-13T02:26:26.585Z,16.38
2022-11-13T02:27:11.961Z,16.35
2022-11-13T02:27:52.539Z,16.33
2022-11-13T02:28:32.942Z,16.33
2022-11-13T02:29:14.532Z,16.34
2022-11-13T02:29:55.092Z,16.31
2022-11-13T02:30:37.587Z,16.31
2022-11-13T02:31:18.310Z,16.32
2022-11-13T02:42:59.271Z,16.14
2022-11-13T02:43:39.608Z,16.12
2022-11-13T02:44:20.252Z,16.11
2022-11-13T02:45:02.351Z,16.14
2022-11-13T02:45:42.866Z,16.11
2022-11-13T02:46:23.235Z,16.08
2022-11-13T02:47:04.827Z,16.04
2022-11-13T02:47:45.582Z,16.02
2022-11-13T02:48:27.644Z,16.03
2022-11-13T02:49:08.619Z,16.07
2022-11-13T02:49:49.278Z,16.07
2022-11-13T02:50:31.068Z,16.08
2022-11-13T02:51:13.043Z,16.12
2022-11-13T02:51:54.420Z,16.14
2022-11-13T02:52:35.009Z,16.18
2022-11-13T03:02:29.195Z,16.09
2022-11-13T03:14:12.298Z,15.87
2022-11-13T03:14:54.376Z,15.90
2022-11-13T03:15:34.932Z,15.86
2022-11-13T03:16:17.855Z,15.87
2022-11-13T03:16:58.753Z,15.75
2022-11-13T03:17:39.275Z,15.83
2022-11-13T03:18:20.718Z,15.82
2022-11-13T03:19:01.059Z,15.85
2022-11-13T03:19:41.163Z,15.89
2022-11-13T03:20:23.021Z,15.93
2022-11-13T03:21:07.321Z,15.91
2022-11-13T03:21:48.931Z,15.91
2022-11-13T03:22:29.194Z,15.91
2022-11-13T03:23:10.183Z,15.94
2022-11-13T03:23:51.166Z,15.95
2022-11-13T03:36:35.803Z,15.76
2022-11-13T03:37:37.752Z,15.75
2022-11-13T03:40:54.444Z,15.75
2022-11-13T03:42:39.957Z,15.75
2022-11-13T03:47:33.019Z,15.58
2022-11-13T03:52:50.952Z,15.74
2022-11-13T03:53:58.089Z,15.59
2022-11-13T03:54:58.029Z,15.49
2022-11-13T03:56:09.023Z,15.45
2022-11-13T03:57:54.805Z,15.53
2022-11-13T04:00:37.861Z,15.32
2022-11-13T04:02:23.008Z,15.27
2022-11-13T04:15:56.909Z,15.18
2022-11-13T04:16:37.738Z,15.28
2022-11-13T04:17:19.007Z,15.32
2022-11-13T04:17:59.226Z,15.11
2022-11-13T04:18:40.514Z,15.10
2022-11-13T04:19:20.706Z,15.22
2022-11-13T04:20:02.403Z,15.27
2022-11-13T04:20:43.069Z,15.28
2022-11-13T04:21:24.585Z,15.12
2022-11-13T04:22:05.329Z,15.26
2022-11-13T04:22:45.640Z,15.24
2022-11-13T04:23:27.310Z,15.22
2022-11-13T04:24:07.795Z,15.30
2022-11-13T04:24:48.383Z,15.33
2022-11-13T04:25:30.128Z,15.30
2022-11-13T04:26:10.946Z,15.36
2022-11-13T04:39:54.583Z,14.82
2022-11-13T04:40:37.299Z,14.95
2022-11-13T04:47:31.599Z,15.27
2022-11-13T04:48:11.495Z,15.24
2022-11-13T04:48:54.318Z,15.11
2022-11-13T04:49:34.610Z,15.00
2022-11-13T04:50:17.560Z,15.07
2022-11-13T04:50:57.794Z,15.19
2022-11-13T04:51:39.045Z,15.21
2022-11-13T04:52:19.576Z,15.13
2022-11-13T04:53:00.949Z,14.98
2022-11-13T04:53:41.911Z,15.04
2022-11-13T04:54:28.494Z,15.07
2022-11-13T04:55:10.821Z,15.07
2022-11-13T04:55:53.421Z,15.11
2022-11-13T04:56:33.768Z,15.20
2022-11-13T04:57:14.645Z,15.28
2022-11-13T05:07:54.299Z,15.20
2022-11-13T05:08:35.595Z,15.20
2022-11-13T05:09:20.067Z,15.13
2022-11-13T05:10:03.353Z,15.11
2022-11-13T05:10:46.000Z,15.08
2022-11-13T05:11:31.051Z,15.10
2022-11-13T05:12:15.484Z,15.13
2022-11-13T05:12:57.216Z,15.06
2022-11-13T05:13:43.455Z,15.00
2022-11-13T05:14:26.326Z,15.06
2022-11-13T05:15:12.537Z,15.07
2022-11-13T05:16:04.814Z,15.01
2022-11-13T05:16:54.283Z,15.07
2022-11-13T05:17:36.392Z,14.96
2022-11-13T05:28:53.692Z,14.69
2022-11-13T05:29:38.471Z,14.75
2022-11-13T05:30:28.934Z,14.83
2022-11-13T05:31:16.450Z,14.92
2022-11-13T05:32:01.618Z,14.84
2022-11-13T05:32:43.587Z,14.91
2022-11-13T05:33:26.485Z,14.85
2022-11-13T05:34:13.101Z,15.00
2022-11-13T05:34:54.081Z,14.93
2022-11-13T05:35:39.832Z,14.94
2022-11-13T05:36:26.287Z,14.90
2022-11-13T05:37:10.295Z,14.79
2022-11-13T05:37:55.459Z,14.78
2022-11-13T05:38:40.411Z,14.85
2022-11-13T05:39:21.672Z,14.81
2022-11-13T05:40:02.430Z,14.85
2022-11-13T05:40:43.865Z,14.88
2022-11-13T05:41:24.659Z,14.95
2022-11-13T05:42:07.063Z,14.97
2022-11-13T05:42:47.400Z,14.97
2022-11-13T05:43:27.775Z,14.98
2022-11-13T05:44:10.714Z,14.99
2022-11-13T05:44:51.169Z,14.94
2022-11-13T05:45:32.681Z,14.92
2022-11-13T05:46:16.544Z,14.90
2022-11-13T05:46:58.016Z,14.84
2022-11-13T05:47:38.631Z,14.90
2022-11-13T05:48:19.095Z,14.92
2022-11-13T05:49:02.575Z,14.90
2022-11-13T05:49:43.000Z,14.92
2022-11-13T05:50:24.588Z,14.92
2022-11-13T05:51:07.794Z,14.90
2022-11-13T05:51:50.066Z,14.83
2022-11-13T05:52:30.364Z,14.86
2022-11-13T05:53:11.954Z,14.74
2022-11-13T05:53:53.050Z,14.83
2022-11-13T05:54:33.506Z,14.80
2022-11-13T05:55:15.198Z,14.76
2022-11-13T05:56:00.341Z,14.82
2022-11-13T05:56:41.565Z,14.84
2022-11-13T05:57:22.060Z,14.85
2022-11-13T05:58:02.529Z,14.89
2022-11-13T05:58:45.066Z,14.90
2022-11-13T05:59:27.209Z,14.91
2022-11-13T06:00:08.657Z,14.91
2022-11-13T06:00:50.365Z,14.96
2022-11-13T06:01:33.173Z,14.98
2022-11-13T06:02:14.832Z,14.98
2022-11-13T06:02:56.453Z,15.00
2022-11-13T06:03:37.214Z,15.00
2022-11-13T06:04:19.032Z,14.93
2022-11-13T06:04:59.657Z,14.93
2022-11-13T06:05:40.228Z,14.88
2022-11-13T06:06:22.960Z,14.94
2022-11-13T06:07:03.430Z,14.97
2022-11-13T06:07:43.983Z,14.95
2022-11-13T06:08:25.597Z,14.90
2022-11-13T06:09:06.606Z,14.88
2022-11-13T06:09:48.843Z,14.90
2022-11-13T06:10:29.109Z,14.80
2022-11-13T06:11:12.231Z,14.80
2022-11-13T06:11:52.942Z,14.83
2022-11-13T06:12:34.987Z,14.81
2022-11-13T06:13:15.649Z,14.89
2022-11-13T06:13:59.077Z,14.87
2022-11-13T06:14:40.741Z,14.91
2022-11-13T06:15:22.062Z,14.95
2022-11-13T06:16:04.081Z,14.88
2022-11-13T06:16:45.638Z,14.88
2022-11-13T06:17:26.260Z,14.89
2022-11-13T06:18:07.013Z,14.83
2022-11-13T06:18:49.412Z,14.75
2022-11-13T06:19:29.678Z,14.74
2022-11-13T06:20:10.512Z,14.72
2022-11-13T06:20:52.224Z,14.68
2022-11-13T06:21:34.821Z,14.66
2022-11-13T06:22:16.035Z,14.68
2022-11-13T06:22:57.955Z,14.74
2022-11-13T06:23:39.460Z,14.81
2022-11-13T06:24:20.500Z,14.79
2022-11-13T06:25:00.652Z,14.83
2022-11-13T06:25:41.242Z,14.84
2022-11-13T06:26:25.248Z,14.83
2022-11-13T06:27:05.786Z,14.83
2022-11-13T06:27:46.203Z,14.84
2022-11-13T06:28:27.866Z,14.83
2022-11-13T06:29:12.116Z,14.82
2022-11-13T06:29:54.961Z,14.90
2022-11-13T06:30:35.335Z,14.86
2022-11-13T06:31:21.754Z,14.83
2022-11-13T06:32:04.388Z,14.87
2022-11-13T06:51:54.479Z,14.66
2022-11-13T06:52:35.358Z,14.72
2022-11-13T06:53:15.899Z,14.73
2022-11-13T06:53:58.244Z,14.78
2022-11-13T06:54:38.849Z,14.69
2022-11-13T06:55:20.027Z,14.70
2022-11-13T06:56:01.024Z,14.75
2022-11-13T06:56:45.399Z,14.74
2022-11-13T06:57:25.740Z,14.76
2022-11-13T06:58:06.928Z,14.68
2022-11-13T06:58:47.683Z,14.55
2022-11-13T06:59:29.038Z,14.64
2022-11-13T07:00:11.175Z,14.61
2022-11-13T07:00:52.976Z,14.66
2022-11-13T07:01:33.391Z,14.69
2022-11-13T07:02:13.875Z,14.72
2022-11-13T07:02:55.206Z,14.69
2022-11-13T07:03:36.182Z,14.64
2022-11-13T07:04:17.608Z,14.66
2022-11-13T07:04:57.845Z,14.73
2022-11-13T07:05:39.835Z,14.55
2022-11-13T07:06:22.435Z,14.57
2022-11-13T07:07:05.129Z,14.53
2022-11-13T07:07:45.307Z,14.57
2022-11-13T07:08:25.618Z,14.53
2022-11-13T07:09:07.234Z,14.55
2022-11-13T07:09:47.953Z,14.55
2022-11-13T07:10:28.440Z,14.62
2022-11-13T07:11:12.443Z,14.60
2022-11-13T07:11:52.812Z,14.60
2022-11-13T07:12:33.188Z,14.59
2022-11-13T07:23:16.869Z,14.66
2022-11-13T07:23:57.612Z,14.64
2022-11-13T07:24:38.879Z,14.65
2022-11-13T07:25:19.101Z,14.62
2022-11-13T07:25:59.446Z,14.64
2022-11-13T07:26:40.928Z,14.67
2022-11-13T07:27:21.282Z,14.68
2022-11-13T07:28:02.966Z,14.72
2022-11-13T07:28:43.773Z,14.73
2022-11-13T07:29:25.075Z,14.72
2022-11-13T07:30:06.348Z,14.76
2022-11-13T07:30:46.698Z,14.78
2022-11-13T07:31:28.265Z,14.80
2022-11-13T07:32:09.024Z,14.79
2022-11-13T07:32:50.184Z,14.79
2022-11-13T07:35:01.601Z,14.80
2022-11-13T07:37:06.601Z,14.79
2022-11-13T07:38:49.995Z,14.68
2022-11-13T07:39:32.141Z,14.76
2022-11-13T07:40:12.933Z,14.73
2022-11-13T07:41:06.997Z,14.82
2022-11-13T07:41:52.950Z,14.77
2022-11-13T07:42:47.791Z,14.80
2022-11-13T07:43:51.692Z,14.86
2022-11-13T07:44:53.411Z,14.86
2022-11-13T07:45:33.515Z,14.84
2022-11-13T07:46:15.391Z,14.88
2022-11-13T07:46:55.653Z,14.91
2022-11-13T07:47:36.170Z,14.92
2022-11-13T07:48:18.855Z,14.96
2022-11-13T07:48:59.214Z,14.97
2022-11-13T07:49:41.085Z,15.01
2022-11-13T07:50:22.059Z,14.93
2022-11-13T07:51:04.012Z,14.98
2022-11-13T07:51:44.496Z,15.06
2022-11-13T07:52:25.704Z,15.10
2022-11-13T07:53:08.291Z,15.12
2022-11-13T07:53:51.616Z,15.14
2022-11-13T07:54:36.942Z,15.22
2022-11-13T07:55:54.542Z,15.28
2022-11-13T07:56:36.018Z,15.32
2022-11-13T07:57:24.404Z,15.34
2022-11-13T07:58:14.240Z,15.39
2022-11-13T07:59:07.820Z,15.41
2022-11-13T07:59:56.668Z,15.44
2022-11-13T08:01:34.542Z,15.48
2022-11-13T08:02:31.169Z,15.54
2022-11-13T08:03:23.653Z,15.60
2022-11-13T08:04:05.187Z,15.58
2022-11-13T08:04:46.534Z,15.60
2022-11-13T08:05:26.743Z,15.59
2022-11-13T08:06:09.476Z,15.59
2022-11-13T08:06:49.874Z,15.62
2022-11-13T08:07:31.192Z,15.69
2022-11-13T08:08:13.096Z,15.70
2022-11-13T08:08:56.047Z,15.72
2022-11-13T08:09:36.321Z,15.73
2022-11-13T08:10:19.771Z,15.75
2022-11-13T08:11:05.228Z,15.73
2022-11-13T08:11:47.118Z,15.67
2022-11-13T08:12:27.383Z,15.73
2022-11-13T08:13:11.393Z,15.75
2022-11-13T08:13:52.438Z,15.75
2022-11-13T08:14:34.144Z,15.75
2022-11-13T08:15:15.089Z,15.76
2022-11-13T08:15:59.532Z,15.73
2022-11-13T08:16:40.476Z,15.75
2022-11-13T08:17:21.877Z,15.77
2022-11-13T08:18:04.282Z,15.77
2022-11-13T08:18:45.934Z,15.79
2022-11-13T08:19:26.178Z,15.83
2022-11-13T08:20:08.178Z,15.87
2022-11-13T08:20:49.149Z,15.88
2022-11-13T08:21:29.595Z,15.89
2022-11-13T08:22:11.236Z,15.91
2022-11-13T08:22:52.154Z,15.94
2022-11-13T08:23:33.633Z,15.97
2022-11-13T08:24:15.284Z,15.99
2022-11-13T08:24:56.724Z,15.97
2022-11-13T08:25:37.331Z,15.98
2022-11-13T08:26:19.284Z,15.99
2022-11-13T08:26:59.706Z,15.96
2022-11-13T08:27:40.028Z,16.02
2022-11-13T08:28:21.385Z,16.05
2022-11-13T08:29:01.553Z,16.04
2022-11-13T08:29:43.457Z,16.02
2022-11-13T08:30:26.066Z,15.97
2022-11-13T08:31:12.330Z,16.00
2022-11-13T08:31:52.785Z,16.01
2022-11-13T08:32:34.576Z,15.98
2022-11-13T08:33:14.589Z,16.02
2022-11-13T08:33:56.024Z,16.00
2022-11-13T08:34:37.239Z,16.00
2022-11-13T08:35:19.706Z,16.09
2022-11-13T08:36:16.466Z,16.17
2022-11-13T08:46:47.354Z,16.48
2022-11-13T08:47:29.666Z,16.50
2022-11-13T08:48:11.426Z,16.52
2022-11-13T08:48:51.881Z,16.49
2022-11-13T08:49:33.687Z,16.53
2022-11-13T08:50:14.583Z,16.54
2022-11-13T08:50:57.344Z,16.52
2022-11-13T08:51:38.088Z,16.57
2022-11-13T08:52:19.244Z,16.57
2022-11-13T08:53:01.148Z,16.60
2022-11-13T08:53:42.938Z,16.66
2022-11-13T08:54:23.253Z,16.74
2022-11-13T08:55:05.556Z,16.78
2022-11-13T08:55:45.899Z,16.88
2022-11-13T08:56:26.359Z,16.88
2022-11-13T08:57:07.804Z,16.94
2022-11-13T08:57:48.528Z,16.98
2022-11-13T08:58:29.052Z,16.98
2022-11-13T08:59:11.301Z,17.06
2022-11-13T08:59:51.682Z,17.10
2022-11-13T09:00:34.267Z,17.17
2022-11-13T09:01:14.516Z,17.20
2022-11-13T09:01:59.330Z,17.28
2022-11-13T09:02:39.499Z,17.34
2022-11-13T09:03:21.041Z,17.34
2022-11-13T09:04:02.803Z,17.33
2022-11-13T09:04:44.346Z,17.37
2022-11-13T09:05:25.384Z,17.32
2022-11-13T09:06:07.363Z,17.41
2022-11-13T09:06:47.450Z,17.47
2022-11-13T09:07:29.065Z,17.51
2022-11-13T09:08:10.598Z,17.34
2022-11-13T09:08:52.020Z,17.31
2022-11-13T09:09:33.199Z,17.42
2022-11-13T09:10:13.864Z,17.56
2022-11-13T09:10:56.749Z,17.52
2022-11-13T09:11:37.034Z,17.57
2022-11-13T09:12:18.471Z,17.61
2022-11-13T09:13:01.513Z,17.66
2022-11-13T09:13:45.147Z,17.71
2022-11-13T09:14:28.120Z,17.78
2022-11-13T09:15:11.018Z,17.82
2022-11-13T09:15:51.672Z,17.76
2022-11-13T09:16:34.681Z,17.87
2022-11-13T09:17:16.388Z,17.76
2022-11-13T09:30:51.225Z,18.01
2022-11-13T09:31:33.937Z,18.03
2022-11-13T09:38:18.705Z,18.28
2022-11-13T09:39:00.864Z,18.28
2022-11-13T09:39:42.271Z,18.32
2022-11-13T09:40:29.228Z,18.38
2022-11-13T09:41:12.760Z,18.30
2022-11-13T09:41:57.589Z,18.36
2022-11-13T09:42:40.374Z,18.36
2022-11-13T09:43:29.674Z,18.33
2022-11-13T09:44:16.767Z,18.36
2022-11-13T09:45:03.963Z,18.38
2022-11-13T09:45:44.545Z,18.37
2022-11-13T09:46:41.771Z,18.35
2022-11-13T09:47:26.224Z,18.35
2022-11-13T09:48:20.173Z,18.37
2022-11-13T09:49:06.883Z,18.44
2022-11-13T09:49:51.594Z,18.44
2022-11-13T09:50:32.403Z,18.43
2022-11-13T09:51:16.753Z,18.43
2022-11-13T09:52:06.586Z,18.46
2022-11-13T09:52:49.191Z,18.47
2022-11-13T09:53:34.561Z,18.48
2022-11-13T09:54:17.149Z,18.50
2022-11-13T09:54:58.553Z,18.55
2022-11-13T09:55:49.548Z,18.56
2022-11-13T09:56:34.060Z,18.59
2022-11-13T09:57:27.713Z,18.55
2022-11-13T09:58:18.787Z,18.51
2022-11-13T09:59:21.358Z,18.51
2022-11-13T10:00:30.346Z,18.61
2022-11-13T10:01:50.923Z,18.71
2022-11-13T10:03:05.269Z,18.62
2022-11-13T10:04:32.690Z,18.89
2022-11-13T10:05:24.515Z,19.01
2022-11-13T10:09:26.408Z,19.05
2022-11-13T10:10:43.923Z,19.20
2022-11-13T10:11:40.767Z,19.30
2022-11-13T10:12:23.230Z,19.33
2022-11-13T10:13:05.067Z,19.35
2022-11-13T10:13:48.596Z,19.35
2022-11-13T10:14:36.361Z,19.37
2022-11-13T10:15:19.145Z,19.37
2022-11-13T10:16:06.692Z,19.33
2022-11-13T10:16:54.180Z,19.30
2022-11-13T10:17:38.651Z,19.20
2022-11-13T10:18:23.720Z,19.26
2022-11-13T10:19:13.630Z,19.28
2022-11-13T10:24:38.633Z,19.31
2022-11-13T10:41:13.838Z,19.70
2022-11-13T10:41:55.618Z,19.70
2022-11-13T10:42:41.061Z,19.83
2022-11-13T10:43:23.348Z,19.84
2022-11-13T10:44:18.844Z,19.90
2022-11-13T10:45:00.860Z,19.99
2022-11-13T10:45:43.051Z,19.97
2022-11-13T10:46:25.795Z,20.02
2022-11-13T10:47:15.807Z,20.03
2022-11-13T10:48:04.398Z,20.18
2022-11-13T10:48:46.461Z,20.28
2022-11-13T10:49:29.190Z,20.32
2022-11-13T10:50:12.253Z,20.40
2022-11-13T10:50:55.382Z,20.58
2022-11-13T11:01:46.138Z,22.84
2022-11-13T11:02:27.838Z,22.87
2022-11-13T11:03:10.550Z,22.87
2022-11-13T11:03:51.204Z,22.82
2022-11-13T11:04:32.827Z,22.78
2022-11-13T11:05:18.664Z,22.62
2022-11-13T11:06:02.134Z,22.64
2022-11-13T11:07:17.939Z,22.64
2022-11-13T11:07:44.853Z,22.46
2022-11-13T11:08:31.286Z,22.46
2022-11-13T11:09:23.156Z,22.32
2022-11-13T11:10:04.011Z,22.25
2022-11-13T11:11:13.445Z,22.17
2022-11-13T11:14:38.820Z,21.78
2022-11-13T11:15:46.543Z,21.67
2022-11-13T11:17:12.305Z,21.55
2022-11-13T11:18:36.085Z,21.48
2022-11-13T11:19:33.765Z,21.35
2022-11-13T11:33:31.870Z,20.97
2022-11-13T11:34:18.774Z,20.92
2022-11-13T11:35:06.203Z,20.86
2022-11-13T11:35:52.480Z,20.88
2022-11-13T11:36:37.840Z,20.84
2022-11-13T11:37:20.642Z,20.84
2022-11-13T11:38:09.984Z,20.83
2022-11-13T11:38:56.989Z,20.81
2022-11-13T11:39:44.623Z,20.80
2022-11-13T11:40:33.028Z,20.78
2022-11-13T11:41:17.078Z,20.75
2022-11-13T11:42:06.618Z,20.78
2022-11-13T11:42:55.045Z,20.78
2022-11-13T11:54:42.424Z,20.69
2022-11-13T11:55:46.074Z,20.73
2022-11-13T11:56:32.645Z,20.80
2022-11-13T11:57:29.680Z,20.89
2022-11-13T11:58:22.383Z,21.06
2022-11-13T11:59:12.492Z,21.32
2022-11-13T12:00:04.897Z,21.66
2022-11-13T12:00:50.356Z,21.95
2022-11-13T12:01:45.685Z,22.25
2022-11-13T12:02:53.096Z,22.80
2022-11-13T12:03:49.821Z,23.39
2022-11-13T12:04:43.587Z,23.91
2022-11-13T12:05:29.638Z,24.41
2022-11-13T12:06:19.586Z,24.88
2022-11-13T12:07:14.726Z,25.26
2022-11-13T12:08:15.061Z,25.63
2022-11-13T12:09:08.742Z,25.79
2022-11-13T12:09:57.385Z,25.97
2022-11-13T12:10:44.804Z,26.18
2022-11-13T12:11:29.595Z,26.21
2022-11-13T12:12:23.643Z,26.37
2022-11-13T12:13:29.183Z,26.40
2022-11-13T12:14:24.451Z,26.70
2022-11-13T12:15:12.129Z,26.91
2022-11-13T12:16:01.046Z,26.99
2022-11-13T12:16:52.981Z,27.14
2022-11-13T12:17:46.138Z,27.28
2022-11-13T12:18:37.144Z,27.54
2022-11-13T12:19:24.438Z,27.45
2022-11-13T12:20:18.995Z,27.79
2022-11-13T12:21:12.038Z,27.79
2022-11-13T12:22:03.960Z,28.03
2022-11-13T12:22:53.520Z,28.27
2022-11-13T12:23:53.947Z,28.43
2022-11-13T12:24:59.512Z,28.35
2022-11-13T12:25:52.157Z,28.47
2022-11-13T12:26:41.770Z,28.58
2022-11-13T12:27:32.525Z,28.58
2022-11-13T12:28:21.101Z,28.51
2022-11-13T12:29:13.232Z,28.39
2022-11-13T12:30:05.134Z,27.97
2022-11-13T12:30:57.771Z,28.12
2022-11-13T12:31:50.036Z,27.94
2022-11-13T12:32:40.810Z,27.75
2022-11-13T12:33:35.299Z,27.75
2022-11-13T12:34:24.769Z,27.68
2022-11-13T12:35:11.275Z,27.73
2022-11-13T12:35:53.729Z,27.66
2022-11-13T12:36:37.233Z,27.65
2022-11-13T12:37:26.905Z,27.79
2022-11-13T12:38:18.150Z,27.75
2022-11-13T12:39:06.155Z,27.88
2022-11-13T12:39:55.899Z,27.86
2022-11-13T12:40:44.629Z,27.96
2022-11-13T12:41:35.339Z,27.93
2022-11-13T12:42:22.638Z,27.87
2022-11-13T12:43:25.338Z,27.83
2022-11-13T12:44:22.019Z,27.57
2022-11-13T12:45:11.206Z,27.61
2022-11-13T12:45:53.493Z,27.60
2022-11-13T12:46:37.435Z,27.53
2022-11-13T12:47:18.087Z,27.47
2022-11-13T12:48:09.187Z,27.40
2022-11-13T12:48:49.382Z,27.42
2022-11-13T12:49:33.230Z,27.39
2022-11-13T12:50:30.305Z,27.43
2022-11-13T12:51:15.331Z,27.40
2022-11-13T12:51:57.335Z,27.43
2022-11-13T12:52:38.756Z,27.43
2022-11-13T12:53:26.810Z,27.25
2022-11-13T12:54:11.443Z,27.09
2022-11-13T12:55:02.880Z,27.05
2022-11-13T12:56:00.328Z,26.89
2022-11-13T12:56:40.868Z,26.67
2022-11-13T12:57:30.002Z,26.47
2022-11-13T12:58:19.571Z,26.17
2022-11-13T12:59:29.274Z,26.00
2022-11-13T13:00:25.123Z,25.63
2022-11-13T13:01:14.593Z,25.48
2022-11-13T13:02:02.210Z,25.29
2022-11-13T13:02:56.061Z,25.11
2022-11-13T13:04:05.491Z,24.98
2022-11-13T13:05:02.728Z,24.76
2022-11-13T13:06:00.871Z,24.51
2022-11-13T13:06:54.958Z,24.37
2022-11-13T13:07:56.271Z,24.17
2022-11-13T13:08:57.650Z,24.14
2022-11-13T13:09:51.151Z,24.07
2022-11-13T13:10:42.306Z,23.98
2022-11-13T13:11:36.264Z,23.89
2022-11-13T13:12:27.438Z,23.78
2022-11-13T13:13:19.503Z,23.70
2022-11-13T13:14:25.526Z,23.60
2022-11-13T13:15:24.066Z,23.55
2022-11-13T13:16:07.039Z,23.48
2022-11-13T13:34:35.119Z,22.84
2022-11-13T13:35:21.511Z,22.75
2022-11-13T13:36:21.811Z,22.73
2022-11-13T13:37:18.225Z,22.67
2022-11-13T13:39:53.265Z,22.47
2022-11-13T13:40:50.928Z,22.49
2022-11-13T13:42:05.702Z,22.49
2022-11-13T13:43:15.121Z,22.50
2022-11-13T13:46:49.933Z,22.34
2022-11-13T13:48:07.208Z,22.26
2022-11-13T14:10:16.970Z,21.96
2022-11-13T14:10:57.303Z,21.94
2022-11-13T14:11:38.746Z,21.93
2022-11-13T14:12:21.445Z,21.90
2022-11-13T14:13:03.852Z,21.91
2022-11-13T14:13:43.955Z,21.84
2022-11-13T14:14:26.180Z,21.91
2022-11-13T14:15:21.993Z,21.91
2022-11-13T14:16:05.193Z,21.91
2022-11-13T14:16:49.498Z,21.90
2022-11-13T14:17:32.261Z,21.90
2022-11-13T14:18:14.752Z,21.87
2022-11-13T14:19:04.725Z,21.85
2022-11-13T14:19:49.871Z,21.81
2022-11-13T14:20:33.865Z,21.81
2022-11-13T14:21:18.049Z,21.78
2022-11-13T14:22:01.980Z,21.76
2022-11-13T14:22:44.580Z,21.75
2022-11-13T14:23:29.548Z,21.73
2022-11-13T14:24:16.629Z,21.69
2022-11-13T14:25:01.427Z,21.68
2022-11-13T14:25:44.288Z,21.61
2022-11-13T14:26:25.930Z,21.61
2022-11-13T14:27:08.806Z,21.59
2022-11-13T14:27:50.305Z,21.54
2022-11-13T14:28:33.674Z,21.54
2022-11-13T14:29:29.191Z,21.47
2022-11-13T14:30:23.972Z,21.46
2022-11-13T14:31:08.104Z,21.43
2022-11-13T14:31:49.262Z,21.37
2022-11-13T14:32:33.176Z,21.38
2022-11-13T14:33:17.626Z,21.32
2022-11-13T14:34:02.892Z,21.28
2022-11-13T14:34:44.312Z,21.26
2022-11-13T14:35:27.771Z,21.24
2022-11-13T14:36:08.552Z,21.23
2022-11-13T14:36:51.029Z,21.22
2022-11-13T14:37:34.266Z,21.20
2022-11-13T14:38:21.130Z,21.16
2022-11-13T14:39:01.798Z,21.11
2022-11-13T14:50:23.107Z,20.61
2022-11-13T14:51:05.801Z,20.63
2022-11-13T14:51:56.056Z,20.57
2022-11-13T14:52:36.665Z,20.55
2022-11-13T14:53:28.555Z,20.57
2022-11-13T14:54:33.746Z,20.57
2022-11-13T14:55:26.233Z,20.50